Time;durP1;ratioP1;P1;durP2;ratioP2;P2;SDS_P1;SDS_P2;PMS_P1;PMS_P2;Temp;Humidity;BMP_temperature;BMP_pressure;BME280_temperature;BME280_humidity;BME280_pressure;Samples;Min_cycle;Max_cycle;Signal;HPM_P1;HPM_P2
2021/09/04 10:18:40;;;;;;;11.85;7.40;;;26.00;99.60;;;;;;14948313;22;1410330;-61
2021/09/04 10:24:45;;;;;;;13.25;7.63;;;25.90;99.50;;;;;;14848823;22;20034;-61
2021/09/04 10:30:35;;;;;;;14.23;7.10;;;26.00;99.10;;;;;;14874655;22;20549;-61
2021/09/04 10:36:26;;;;;;;13.43;8.50;;;26.10;98.70;;;;;;14881493;22;20409;-61
2021/09/04 10:42:15;;;;;;;9.90;7.18;;;26.40;98.60;;;;;;14875316;22;20024;-62
2021/09/04 10:48:13;;;;;;;11.85;7.25;;;26.80;96.60;;;;;;14866819;22;20107;-61
2021/09/04 10:54:01;;;;;;;11.38;7.43;;;27.10;96.00;;;;;;14859916;22;20111;-60
2021/09/04 11:00:10;;;;;;;9.13;6.45;;;27.50;95.00;;;;;;14858777;22;20028;-61
2021/09/04 11:06:01;;;;;;;10.73;6.45;;;27.90;94.30;;;;;;14859012;22;20024;-61
2021/09/04 11:11:50;;;;;;;11.90;6.47;;;28.20;93.80;;;;;;14859345;22;20103;-61
2021/09/04 11:17:37;;;;;;;8.50;4.97;;;28.40;93.40;;;;;;14808783;22;20046;-61
2021/09/04 11:23:26;;;;;;;11.25;5.00;;;28.50;92.50;;;;;;14702729;22;20057;-61
2021/09/04 11:29:15;;;;;;;7.93;4.32;;;28.60;91.30;;;;;;14686801;22;20100;-62
2021/09/04 11:35:11;;;;;;;4.72;4.00;;;28.50;89.40;;;;;;14741836;22;20024;-62
2021/09/04 11:40:58;;;;;;;9.35;4.45;;;28.40;90.00;;;;;;14689132;22;20529;-62
2021/09/04 11:46:46;;;;;;;5.18;4.18;;;28.30;90.40;;;;;;14763320;22;20052;-62
2021/09/04 11:52:35;;;;;;;6.00;4.00;;;28.20;90.20;;;;;;14753255;23;20020;-61
2021/09/04 11:58:38;;;;;;;6.07;3.88;;;28.30;90.80;;;;;;14774852;23;20071;-63
2021/09/04 12:04:27;;;;;;;7.75;4.50;;;28.20;90.40;;;;;;14785306;22;20107;-63
2021/09/04 12:10:16;;;;;;;4.65;3.72;;;28.20;90.00;;;;;;14787607;23;20383;-62
2021/09/04 12:16:05;;;;;;;8.13;3.83;;;28.20;90.30;;;;;;14794873;22;20082;-60
2021/09/04 12:21:54;;;;;;;7.85;3.60;;;28.30;89.30;;;;;;14858284;23;20475;-61
2021/09/04 12:27:42;;;;;;;8.88;4.25;;;28.30;87.70;;;;;;14855794;22;20110;-61
2021/09/04 12:33:30;;;;;;;6.97;3.85;;;28.40;89.00;;;;;;14856019;22;20020;-60
2021/09/04 12:39:22;;;;;;;9.90;4.32;;;28.60;88.20;;;;;;14859850;23;20407;-60
2021/09/04 12:45:18;;;;;;;7.82;3.92;;;28.70;87.70;;;;;;14855520;22;20125;-67
2021/09/04 12:51:15;;;;;;;6.70;4.22;;;28.80;87.10;;;;;;14856288;22;20028;-69
2021/09/04 12:57:11;;;;;;;5.40;4.15;;;28.70;86.70;;;;;;14856348;22;20106;-66
2021/09/04 13:02:58;;;;;;;9.35;4.68;;;28.60;88.50;;;;;;14818452;22;20028;-66
2021/09/04 13:08:45;;;;;;;9.65;4.57;;;28.60;88.50;;;;;;14855780;22;20024;-67
2021/09/04 13:14:35;;;;;;;5.57;4.00;;;28.60;88.20;;;;;;14855274;22;20557;-67
2021/09/04 13:20:22;;;;;;;5.50;3.78;;;28.60;88.60;;;;;;14762276;22;20044;-65
2021/09/04 13:26:10;;;;;;;8.00;4.15;;;28.50;89.10;;;;;;14783453;22;20074;-69
2021/09/04 13:31:58;;;;;;;5.18;4.07;;;28.50;88.20;;;;;;14783268;22;20025;-68
2021/09/04 13:37:46;;;;;;;8.10;3.80;;;28.50;87.60;;;;;;14783876;22;20076;-62
2021/09/04 13:43:33;;;;;;;5.72;4.20;;;28.50;87.70;;;;;;14783550;22;20028;-63
2021/09/04 13:49:21;;;;;;;3.92;3.50;;;28.50;87.70;;;;;;14782535;22;20111;-62
2021/09/04 13:55:10;;;;;;;7.90;4.00;;;28.50;85.40;;;;;;14782978;22;20034;-67
2021/09/04 14:00:57;;;;;;;8.40;3.40;;;28.50;85.40;;;;;;14782651;22;20048;-60
2021/09/04 14:06:45;;;;;;;8.57;3.72;;;28.40;84.30;;;;;;14783446;22;20409;-64
2021/09/04 14:12:32;;;;;;;4.22;3.20;;;28.30;87.10;;;;;;14783312;22;20108;-60
2021/09/04 14:18:18;;;;;;;5.25;3.22;;;28.30;86.70;;;;;;14764212;22;20363;-63
2021/09/04 14:24:07;;;;;;;7.65;4.00;;;28.20;87.80;;;;;;14761042;22;20051;-61
2021/09/04 14:29:53;;;;;;;9.23;4.25;;;28.20;90.30;;;;;;14762190;22;20023;-62
2021/09/04 14:35:40;;;;;;;11.55;4.57;;;28.10;93.80;;;;;;14773571;22;20478;-62
2021/09/04 14:41:29;;;;;;;7.70;3.72;;;28.40;95.30;;;;;;14786668;22;20463;-63
2021/09/04 14:47:16;;;;;;;6.22;4.00;;;28.80;91.80;;;;;;14788711;22;20068;-62
2021/09/04 14:53:02;;;;;;;7.97;3.63;;;29.10;90.30;;;;;;14787038;22;20841;-62
2021/09/04 14:58:51;;;;;;;4.55;3.60;;;29.10;90.00;;;;;;14707889;22;20589;-62
2021/09/04 15:04:37;;;;;;;4.38;3.60;;;29.30;90.30;;;;;;14787096;22;20046;-63
2021/09/04 15:10:24;;;;;;;10.20;3.60;;;29.80;88.90;;;;;;14787283;22;20202;-62
2021/09/04 15:16:13;;;;;;;8.13;3.90;;;29.90;87.50;;;;;;14779045;22;20029;-61
2021/09/04 15:21:59;;;;;;;5.15;3.63;;;30.00;86.50;;;;;;14772394;22;20366;-60
2021/09/04 15:27:46;;;;;;;8.02;3.75;;;30.10;86.30;;;;;;14784751;22;20044;-58
2021/09/04 15:33:35;;;;;;;4.97;3.15;;;29.90;86.90;;;;;;14785216;22;20042;-59
2021/09/04 15:39:22;;;;;;;5.85;3.60;;;29.50;86.50;;;;;;14786280;22;20024;-60
2021/09/04 15:45:09;;;;;;;7.10;3.22;;;29.40;86.30;;;;;;14785839;22;20031;-59
2021/09/04 15:50:58;;;;;;;11.20;3.85;;;29.20;87.80;;;;;;14737660;22;20417;-59
2021/09/04 15:56:45;;;;;;;7.10;3.70;;;29.30;87.20;;;;;;14785925;22;20370;-60
2021/09/04 16:02:31;;;;;;;6.45;3.72;;;29.20;87.40;;;;;;14785591;22;20028;-65
2021/09/04 16:08:20;;;;;;;4.78;3.53;;;28.90;88.20;;;;;;14785211;22;20092;-60
2021/09/04 16:14:07;;;;;;;5.68;3.08;;;28.80;86.80;;;;;;14785392;22;20449;-61
2021/09/04 16:19:54;;;;;;;6.15;3.38;;;28.70;85.10;;;;;;14756440;22;20038;-59
2021/09/04 16:25:43;;;;;;;4.55;3.85;;;28.80;85.40;;;;;;14770659;22;20021;-61
2021/09/04 16:31:29;;;;;;;8.00;4.00;;;29.00;86.80;;;;;;14783811;22;20035;-62
2021/09/04 16:37:17;;;;;;;5.30;3.63;;;30.50;83.10;;;;;;14784661;22;20068;-62
2021/09/04 16:43:06;;;;;;;5.30;4.15;;;30.50;81.70;;;;;;14783092;22;20025;-61
2021/09/04 16:48:53;;;;;;;5.65;4.00;;;29.80;83.90;;;;;;14784515;22;20100;-63
2021/09/04 16:54:39;;;;;;;5.93;4.07;;;29.30;86.10;;;;;;14783298;22;20052;-61
2021/09/04 17:00:28;;;;;;;11.07;4.43;;;28.90;87.60;;;;;;14703973;22;20048;-62
2021/09/04 17:06:15;;;;;;;7.45;4.50;;;28.60;88.30;;;;;;14780342;22;20414;-62
2021/09/04 17:12:02;;;;;;;9.88;5.10;;;28.40;89.70;;;;;;14783940;22;20681;-62
2021/09/04 17:17:50;;;;;;;11.65;6.47;;;29.40;89.10;;;;;;14801044;22;20028;-62
2021/09/04 17:23:37;;;;;;;72.80;39.67;;;30.40;86.60;;;;;;14826058;22;20366;-62
2021/09/04 17:29:33;;;;;;;19.40;12.68;;;29.60;88.20;;;;;;14849194;22;20556;-63
2021/09/04 17:35:21;;;;;;;49.60;30.88;;;28.60;90.90;;;;;;14815944;22;20031;-63
2021/09/04 17:41:08;;;;;;;35.33;20.33;;;28.10;92.30;;;;;;14855353;22;20108;-62
2021/09/04 17:46:55;;;;;;;160.05;84.72;;;27.60;93.10;;;;;;14855283;22;20031;-62
2021/09/04 17:52:46;;;;;;;55.80;33.70;;;27.20;93.70;;;;;;14855624;22;20020;-62
2021/09/04 17:58:33;;;;;;;38.03;21.45;;;26.90;94.60;;;;;;14858195;22;20028;-62
2021/09/04 18:04:20;;;;;;;11.07;7.20;;;26.80;95.20;;;;;;14860529;22;20486;-62
2021/09/04 18:10:09;;;;;;;8.95;5.97;;;26.50;96.10;;;;;;14860241;22;20107;-62
2021/09/04 18:15:56;;;;;;;12.73;5.88;;;26.50;95.80;;;;;;14852138;22;20052;-63
2021/09/04 18:21:44;;;;;;;7.93;5.55;;;26.40;95.00;;;;;;14832391;22;20024;-62
2021/09/04 18:27:32;;;;;;;10.82;6.32;;;26.50;94.80;;;;;;14837478;22;20125;-62
2021/09/04 18:33:19;;;;;;;10.27;5.93;;;26.40;94.30;;;;;;14859619;22;20098;-62
2021/09/04 18:39:06;;;;;;;9.23;5.88;;;26.40;94.40;;;;;;14858560;22;20107;-62
2021/09/04 18:44:54;;;;;;;10.18;6.53;;;26.30;94.70;;;;;;14859246;22;20052;-62
2021/09/04 18:50:41;;;;;;;12.80;6.55;;;26.20;95.40;;;;;;14858778;22;20436;-62
2021/09/04 18:56:28;;;;;;;13.45;6.75;;;26.10;95.70;;;;;;14859370;22;20462;-62
2021/09/04 19:02:17;;;;;;;10.23;6.25;;;26.10;95.60;;;;;;14860427;22;20505;-62
2021/09/04 19:08:04;;;;;;;10.90;6.18;;;26.00;95.70;;;;;;14858821;22;20020;-63
2021/09/04 19:13:51;;;;;;;13.73;7.25;;;26.00;96.00;;;;;;14860174;22;20112;-62
2021/09/04 19:19:39;;;;;;;16.08;6.38;;;25.90;96.30;;;;;;14841768;22;20028;-62
